Time;durP1;ratioP1;P1;durP2;ratioP2;P2;SDS_P1;SDS_P2;PMS_P1;PMS_P2;Temp;Humidity;BMP_temperature;BMP_pressure;BME280_temperature;BME280_humidity;BME280_pressure;Samples;Min_cycle;Max_cycle;Signal;HPM_P1;HPM_P2
2022/09/10 00:00:33;;;;;;;;;4.00;2.00;;;;;17.55;91.65;101048.28;5121302;27;45513;-56
2022/09/10 00:03:00;;;;;;;;;5.50;4.25;;;;;17.54;91.70;101049.22;5119684;27;45378;-56
2022/09/10 00:05:26;;;;;;;;;2.00;2.00;;;;;17.56;92.02;101057.88;5121238;27;45435;-56
2022/09/10 00:07:52;;;;;;;;;4.00;2.00;;;;;17.55;92.10;101051.75;5121013;27;45253;-57
2022/09/10 00:10:17;;;;;;;;;6.00;2.00;;;;;17.54;91.90;101050.06;5121359;27;45220;-56
2022/09/10 00:12:43;;;;;;;;;1.50;1.00;;;;;17.53;92.42;101056.25;5120342;27;46327;-56
2022/09/10 00:15:09;;;;;;;;;3.50;2.75;;;;;17.51;92.36;101049.38;5121151;27;45296;-56
2022/09/10 00:17:35;;;;;;;;;2.25;2.00;;;;;17.49;92.86;101048.63;5120227;27;45471;-56
2022/09/10 00:20:01;;;;;;;;;4.75;2.00;;;;;17.50;92.75;101056.41;5111969;27;45437;-56
2022/09/10 00:22:26;;;;;;;;;3.75;1.75;;;;;17.50;92.59;101050.31;5116928;27;45419;-56
2022/09/10 00:24:56;;;;;;;;;4.75;3.00;;;;;17.50;92.79;101048.53;5120997;27;45267;-56
2022/09/10 00:27:22;;;;;;;;;5.00;1.75;;;;;17.53;92.22;101044.91;5121195;27;45188;-56
2022/09/10 00:29:51;;;;;;;;;5.00;2.00;;;;;17.54;92.65;101041.34;5130772;27;45505;-56
2022/09/10 00:32:16;;;;;;;;;3.50;2.25;;;;;17.52;92.80;101048.44;5117308;27;47150;-56
2022/09/10 00:34:41;;;;;;;;;2.50;2.00;;;;;17.53;92.56;101050.16;5100511;27;46708;-56
2022/09/10 00:37:07;;;;;;;;;2.00;2.00;;;;;17.51;92.88;101038.88;5103237;27;45279;-56
2022/09/10 00:39:32;;;;;;;;;5.00;2.00;;;;;17.51;92.74;101031.84;5110980;27;48308;-56
2022/09/10 00:41:58;;;;;;;;;3.75;2.00;;;;;17.50;92.57;101032.75;5100050;27;46099;-57
2022/09/10 00:44:38;;;;;;;;;2.50;2.00;;;;;17.49;92.52;101040.72;5100126;27;45341;-56
2022/09/10 00:47:11;;;;;;;;;2.00;2.00;;;;;17.47;93.10;101030.31;5113845;27;45223;-55
2022/09/10 00:49:41;;;;;;;;;1.75;1.75;;;;;17.49;92.89;101035.47;5100202;27;45261;-56
2022/09/10 00:52:06;;;;;;;;;2.00;2.00;;;;;17.45;93.17;101026.91;5107828;27;45352;-56
2022/09/10 00:54:34;;;;;;;;;5.00;2.50;;;;;17.44;92.82;101026.97;5107055;27;45337;-56
2022/09/10 00:57:06;;;;;;;;;5.25;2.25;;;;;17.41;92.77;101027.13;5085711;27;45274;-55
2022/09/10 00:59:33;;;;;;;;;2.25;1.75;;;;;17.40;93.96;101033.31;5114576;27;45372;-55
2022/09/10 01:01:59;;;;;;;;;3.75;2.00;;;;;17.40;93.24;101028.03;5120214;27;45443;-55
2022/09/10 01:04:27;;;;;;;;;3.25;2.00;;;;;17.39;93.42;101026.34;5104575;27;45696;-56
2022/09/10 01:06:53;;;;;;;;;3.25;2.75;;;;;17.36;93.53;101031.75;5100068;27;45524;-55
2022/09/10 01:09:21;;;;;;;;;4.75;2.00;;;;;17.34;93.21;101029.22;5099773;27;45279;-56
2022/09/10 01:11:46;;;;;;;;;5.75;3.00;;;;;17.33;93.53;101020.47;5108670;27;46598;-55
2022/09/10 01:14:50;;;;;;;;;1.75;1.00;;;;;17.31;93.77;101024.97;5103825;27;45504;-56
2022/09/10 01:17:21;;;;;;;;;2.25;2.00;;;;;17.31;93.47;101030.22;5096332;27;45335;-55
2022/09/10 01:20:09;;;;;;;;;3.00;1.75;;;;;17.31;93.99;101026.75;5099800;27;45505;-56
2022/09/10 01:23:10;;;;;;;;;4.25;2.00;;;;;17.28;93.50;101027.75;5117687;27;46254;-54
2022/09/10 01:26:01;;;;;;;;;4.75;2.00;;;;;17.28;94.26;101035.63;5120385;27;45314;-54
2022/09/10 01:28:32;;;;;;;;;5.25;3.00;;;;;17.31;93.61;101035.47;5123400;27;45483;-55
2022/09/10 01:31:06;;;;;;;;;4.00;3.00;;;;;17.32;93.98;101037.19;5122911;27;45792;-54
2022/09/10 01:33:36;;;;;;;;;7.75;2.75;;;;;17.32;94.28;101031.91;5122793;27;46276;-54
2022/09/10 01:36:08;;;;;;;;;2.00;2.00;;;;;17.32;94.23;101033.69;5123009;27;45602;-55
2022/09/10 01:38:37;;;;;;;;;4.00;3.00;;;;;17.31;93.84;101030.22;5123347;27;45439;-55
2022/09/10 01:41:03;;;;;;;;;3.50;2.25;;;;;17.31;93.81;101027.59;5123464;27;45349;-54
2022/09/10 01:43:29;;;;;;;;;5.75;2.50;;;;;17.32;93.83;101036.34;5122275;27;45476;-55
2022/09/10 01:46:19;;;;;;;;;1.25;0.25;;;;;17.32;94.06;101031.91;5123388;27;45346;-55
2022/09/10 01:49:22;;;;;;;;;3.50;2.00;;;;;17.33;94.75;101035.41;5123103;27;45298;-56
2022/09/10 01:52:09;;;;;;;;;2.75;2.50;;;;;17.28;94.66;101033.00;5122211;27;45175;-55
2022/09/10 01:55:09;;;;;;;;;6.00;3.00;;;;;17.25;94.92;101038.44;5123019;27;46031;-55
2022/09/10 01:57:58;;;;;;;;;4.50;3.00;;;;;17.23;95.12;101042.06;5123031;27;45310;-56
2022/09/10 02:00:25;;;;;;;;;2.00;2.00;;;;;17.23;95.00;101047.31;5112527;27;45297;-56
2022/09/10 02:03:04;;;;;;;;;3.75;3.00;;;;;17.25;95.47;101051.56;5122569;27;45223;-55
2022/09/10 02:05:34;;;;;;;;;4.50;2.25;;;;;17.26;95.24;101045.38;5122841;27;47104;-55
2022/09/10 02:08:07;;;;;;;;;2.75;1.75;;;;;17.26;95.43;101050.63;5119573;27;46296;-55
2022/09/10 02:10:33;;;;;;;;;4.25;3.00;;;;;17.26;95.32;101042.75;5115868;27;45772;-56
2022/09/10 02:12:58;;;;;;;;;0.25;0.25;;;;;17.24;95.48;101041.97;5122390;27;45555;-56
2022/09/10 02:15:27;;;;;;;;;2.00;2.00;;;;;17.22;95.29;101043.84;5122723;27;46049;-56
2022/09/10 02:17:54;;;;;;;;;3.00;2.00;;;;;17.22;96.06;101035.97;5122325;27;45293;-55
2022/09/10 02:20:20;;;;;;;;;5.75;2.00;;;;;17.22;96.13;101049.09;5111370;27;45345;-57
2022/09/10 02:22:57;;;;;;;;;3.50;2.00;;;;;17.24;95.61;101041.97;5121285;27;45327;-57
2022/09/10 02:25:24;;;;;;;;;4.75;2.50;;;;;17.26;96.10;101037.50;5121517;27;47138;-55
2022/09/10 02:27:50;;;;;;;;;2.75;2.00;;;;;17.24;95.71;101036.72;5122279;27;45590;-55
2022/09/10 02:30:15;;;;;;;;;5.75;3.00;;;;;17.25;95.81;101041.06;5122382;27;45383;-57
2022/09/10 02:32:41;;;;;;;;;3.00;2.00;;;;;17.27;95.70;101043.59;5122246;27;45561;-55
2022/09/10 02:35:08;;;;;;;;;6.25;2.75;;;;;17.26;96.24;101048.00;5121653;27;46117;-57
2022/09/10 02:37:33;;;;;;;;;5.00;2.00;;;;;17.25;95.69;101046.31;5109051;27;45683;-56
2022/09/10 02:39:58;;;;;;;;;2.00;2.00;;;;;17.24;96.21;101047.22;5122534;27;45405;-55
2022/09/10 02:42:25;;;;;;;;;5.75;3.00;;;;;17.27;95.79;101049.69;5103678;27;52917;-55
2022/09/10 02:44:50;;;;;;;;;2.50;2.50;;;;;17.30;95.78;101052.16;5122061;27;46220;-56
2022/09/10 02:47:15;;;;;;;;;3.00;2.50;;;;;17.33;95.80;101056.41;5121910;27;45423;-56
2022/09/10 02:49:41;;;;;;;;;7.00;2.00;;;;;17.35;95.85;101046.69;5122332;27;45444;-56
2022/09/10 02:52:07;;;;;;;;;5.50;3.00;;;;;17.32;96.45;101041.59;5109160;27;45239;-57
2022/09/10 02:54:32;;;;;;;;;3.00;2.50;;;;;17.31;95.96;101048.63;5121378;27;45372;-57
2022/09/10 02:56:59;;;;;;;;;2.75;2.00;;;;;17.28;95.99;101045.31;5122275;27;45212;-56
2022/09/10 02:59:24;;;;;;;;;3.25;2.00;;;;;17.29;96.25;101044.38;5121368;27;45200;-56
2022/09/10 03:01:49;;;;;;;;;4.00;4.00;;;;;17.30;95.91;101041.66;5122029;27;45209;-56
2022/09/10 03:04:16;;;;;;;;;3.25;1.75;;;;;17.30;96.21;101038.19;5121643;27;45916;-58
2022/09/10 03:06:45;;;;;;;;;3.00;2.00;;;;;17.32;95.90;101041.59;5122235;27;45670;-58
2022/09/10 03:09:11;;;;;;;;;3.25;2.00;;;;;17.34;96.16;101040.56;5121951;27;45358;-55
2022/09/10 03:11:39;;;;;;;;;4.00;2.00;;;;;17.37;96.21;101049.22;5121399;27;45266;-57
2022/09/10 03:14:05;;;;;;;;;4.75;4.00;;;;;17.39;96.46;101053.47;5121411;27;46175;-57
2022/09/10 03:16:31;;;;;;;;;5.75;3.00;;;;;17.40;95.94;101060.41;5121505;27;45284;-56
2022/09/10 03:18:56;;;;;;;;;6.00;2.00;;;;;17.41;95.86;101050.75;5121332;27;45543;-57
2022/09/10 03:21:23;;;;;;;;;6.25;2.50;;;;;17.45;96.00;101052.34;5110347;27;45387;-57
2022/09/10 03:23:51;;;;;;;;;3.00;2.00;;;;;17.46;95.31;101057.50;5103246;27;46219;-57
2022/09/10 03:26:18;;;;;;;;;6.50;3.00;;;;;17.48;95.66;101053.03;5099680;27;45515;-56
2022/09/10 03:28:44;;;;;;;;;3.25;3.00;;;;;17.49;95.46;101057.34;5100825;27;45342;-57
2022/09/10 03:31:10;;;;;;;;;3.75;3.25;;;;;17.50;95.34;101058.19;5118710;27;45226;-57
2022/09/10 03:33:36;;;;;;;;;6.00;2.25;;;;;17.51;95.62;101052.00;5106260;27;45477;-57
2022/09/10 03:36:04;;;;;;;;;2.00;2.00;;;;;17.50;95.59;101055.56;5100975;27;45397;-57
2022/09/10 03:38:30;;;;;;;;;4.25;2.25;;;;;17.52;95.50;101059.81;5100692;27;45437;-57
2022/09/10 03:40:55;;;;;;;;;4.00;2.25;;;;;17.54;95.10;101051.84;5108369;27;45267;-57
2022/09/10 03:43:21;;;;;;;;;3.50;2.75;;;;;17.55;95.39;101058.81;5107370;27;45385;-57
2022/09/10 03:45:48;;;;;;;;;5.00;3.00;;;;;17.57;94.82;101052.53;5112852;27;45243;-57
2022/09/10 03:48:15;;;;;;;;;4.25;3.00;;;;;17.57;94.86;101056.94;5099697;27;45239;-57
2022/09/10 03:50:42;;;;;;;;;1.00;1.00;;;;;17.54;94.79;101052.69;5100823;27;45390;-57
2022/09/10 03:53:09;;;;;;;;;3.00;3.00;;;;;17.58;95.06;101054.22;5114773;27;47085;-57
2022/09/10 03:55:34;;;;;;;;;2.75;2.00;;;;;17.59;94.84;101060.34;5100589;27;45306;-57
2022/09/10 03:58:00;;;;;;;;;3.00;1.50;;;;;17.57;94.49;101062.19;5102621;27;45284;-57
2022/09/10 04:00:25;;;;;;;;;3.00;2.00;;;;;17.56;94.33;101061.34;5111879;27;45430;-57
2022/09/10 04:02:51;;;;;;;;;5.25;2.25;;;;;17.59;94.95;101055.94;5099452;27;45375;-57
2022/09/10 04:05:17;;;;;;;;;5.75;3.00;;;;;17.58;94.33;101056.00;5100474;27;45288;-57
2022/09/10 04:07:43;;;;;;;;;4.00;3.00;;;;;17.56;94.88;101053.47;5100437;27;45206;-57
2022/09/10 04:10:08;;;;;;;;;4.25;2.50;;;;;17.58;94.48;101054.22;5100207;27;45221;-57
2022/09/10 04:12:35;;;;;;;;;2.00;2.00;;;;;17.59;94.81;101057.72;5103642;27;46284;-56
2022/09/10 04:15:03;;;;;;;;;3.75;3.00;;;;;17.60;94.42;101054.16;5110699;27;45621;-56
2022/09/10 04:17:28;;;;;;;;;5.75;2.00;;;;;17.60;94.48;101048.88;5103270;27;45448;-56
2022/09/10 04:19:54;;;;;;;;;3.00;3.00;;;;;17.61;94.43;101063.72;5092054;27;45480;-56
2022/09/10 04:22:20;;;;;;;;;3.00;3.00;;;;;17.64;94.24;101063.59;5109927;27;46238;-56
2022/09/10 04:24:45;;;;;;;;;3.50;2.00;;;;;17.59;94.79;101062.97;5119995;27;45434;-56
2022/09/10 04:27:10;;;;;;;;;2.00;2.00;;;;;17.57;94.83;101063.03;5110209;27;45369;-56
2022/09/10 04:29:36;;;;;;;;;3.00;3.00;;;;;17.59;95.11;101066.44;5105534;27;45576;-56
2022/09/10 04:32:02;;;;;;;;;3.00;2.50;;;;;17.60;95.28;101067.28;5107610;27;46211;-56
2022/09/10 04:34:28;;;;;;;;;4.00;3.00;;;;;17.59;95.02;101058.56;5102021;27;45691;-56
2022/09/10 04:36:53;;;;;;;;;3.50;3.00;;;;;17.61;94.74;101058.47;5120417;27;45303;-56
2022/09/10 04:39:18;;;;;;;;;4.25;2.50;;;;;17.59;94.65;101061.19;5120738;27;45157;-56
2022/09/10 04:41:44;;;;;;;;;2.00;2.00;;;;;17.62;94.66;101060.19;5101756;27;47396;-56
2022/09/10 04:44:09;;;;;;;;;2.25;2.25;;;;;17.61;94.37;101063.72;5120336;27;45206;-56
2022/09/10 04:46:35;;;;;;;;;2.25;2.25;;;;;17.61;94.71;101064.56;5110300;27;45385;-56
2022/09/10 04:49:01;;;;;;;;;8.00;2.50;;;;;17.59;94.58;101055.94;5120320;27;45487;-56
2022/09/10 04:51:26;;;;;;;;;4.00;2.00;;;;;17.62;94.59;101062.84;5118768;27;45496;-56
2022/09/10 04:53:52;;;;;;;;;2.75;2.25;;;;;17.62;94.27;101068.09;5120472;27;45354;-56
2022/09/10 04:56:19;;;;;;;;;4.00;3.00;;;;;17.62;94.46;101060.19;5120271;27;45318;-56
2022/09/10 04:58:45;;;;;;;;;2.00;2.00;;;;;17.63;94.41;101073.25;5120045;27;45611;-56
2022/09/10 05:01:10;;;;;;;;;3.75;3.00;;;;;17.60;94.15;101067.28;5122777;27;46207;-56
2022/09/10 05:03:36;;;;;;;;;2.25;2.00;;;;;17.63;94.31;101085.56;5115081;27;45290;-56
2022/09/10 05:06:02;;;;;;;;;2.75;2.00;;;;;17.64;94.51;101082.00;5118720;27;45275;-55
2022/09/10 05:08:28;;;;;;;;;5.25;3.25;;;;;17.65;94.39;101086.31;5105340;27;45520;-55
2022/09/10 05:10:53;;;;;;;;;2.00;1.00;;;;;17.66;94.09;101092.44;5122557;27;46294;-55
2022/09/10 05:13:19;;;;;;;;;7.25;4.00;;;;;17.65;94.01;101086.31;5123411;27;45223;-55
2022/09/10 05:15:44;;;;;;;;;4.00;4.00;;;;;17.68;93.91;101086.19;5123405;27;45176;-55
2022/09/10 05:18:10;;;;;;;;;4.00;4.00;;;;;17.67;94.22;101084.47;5115440;27;45241;-55
2022/09/10 05:20:36;;;;;;;;;5.25;2.25;;;;;17.70;94.33;101094.84;5106445;27;46425;-55
2022/09/10 05:23:02;;;;;;;;;5.25;3.00;;;;;17.69;93.99;101093.16;5116164;27;45552;-56
2022/09/10 05:25:27;;;;;;;;;4.25;3.00;;;;;17.69;93.49;101097.56;5102814;27;45349;-56
2022/09/10 05:27:54;;;;;;;;;7.75;3.75;;;;;17.71;94.16;101103.59;5102681;27;45329;-57
2022/09/10 05:30:19;;;;;;;;;4.25;3.00;;;;;17.71;93.79;101104.44;5116365;27;45339;-55
2022/09/10 05:32:46;;;;;;;;;3.00;2.75;;;;;17.72;93.99;101102.66;5115888;27;45333;-57
2022/09/10 05:35:12;;;;;;;;;3.25;1.50;;;;;17.70;93.61;101108.00;5102721;27;45371;-56
2022/09/10 05:37:37;;;;;;;;;7.50;4.00;;;;;17.73;94.16;101104.34;5114839;27;45235;-57
2022/09/10 05:40:05;;;;;;;;;2.00;2.00;;;;;17.74;93.43;101101.63;5084272;27;46148;-57
2022/09/10 05:42:30;;;;;;;;;3.00;2.00;;;;;17.73;93.83;101105.19;5102605;27;45600;-58
2022/09/10 05:44:56;;;;;;;;;4.25;3.25;;;;;17.69;93.51;101108.91;5102749;27;45282;-63
2022/09/10 05:47:21;;;;;;;;;3.00;3.00;;;;;17.70;93.88;101118.50;5084094;27;45293;-57
2022/09/10 05:49:48;;;;;;;;;5.00;3.75;;;;;17.75;94.01;101115.63;5103249;27;45453;-64
2022/09/10 05:52:14;;;;;;;;;5.75;2.00;;;;;17.77;94.35;101129.53;5123077;27;45388;-63
2022/09/10 05:54:40;;;;;;;;;3.00;2.00;;;;;17.78;93.50;101123.34;5109204;27;45339;-60
2022/09/10 05:57:05;;;;;;;;;4.25;2.25;;;;;17.78;93.51;101129.47;5114935;27;45246;-53
2022/09/10 05:59:30;;;;;;;;;6.75;3.00;;;;;17.80;93.68;101129.38;5102441;27;45697;-60
2022/09/10 06:01:56;;;;;;;;;1.25;1.25;;;;;17.79;93.13;101133.78;5115027;27;45345;-59
2022/09/10 06:04:23;;;;;;;;;4.25;3.25;;;;;17.75;93.31;101134.88;5115778;27;45472;-59
2022/09/10 06:06:48;;;;;;;;;6.75;4.50;;;;;17.77;93.62;101135.66;5102476;27;45248;-58
2022/09/10 06:09:13;;;;;;;;;3.75;2.00;;;;;17.79;93.32;101143.47;5115896;27;45429;-53
2022/09/10 06:11:39;;;;;;;;;5.00;3.25;;;;;17.76;93.71;101146.25;5101203;27;45217;-55
2022/09/10 06:14:05;;;;;;;;;2.00;2.00;;;;;17.74;93.83;101151.59;5102257;27;45222;-56
2022/09/10 06:16:31;;;;;;;;;2.00;2.00;;;;;17.74;93.76;101154.22;5109688;27;45277;-57
2022/09/10 06:18:58;;;;;;;;;3.00;2.00;;;;;17.71;93.52;101149.13;5115636;27;46164;-63
2022/09/10 06:21:23;;;;;;;;;2.00;2.00;;;;;17.74;93.85;101148.97;5110220;27;45342;-56
2022/09/10 06:23:52;;;;;;;;;4.00;2.50;;;;;17.76;93.84;101157.63;5122564;27;45429;-57
2022/09/10 06:26:18;;;;;;;;;5.75;3.25;;;;;17.81;93.61;101157.38;5121626;27;45521;-55
2022/09/10 06:28:44;;;;;;;;;3.00;2.00;;;;;17.86;93.46;101158.88;5122117;27;47360;-54
2022/09/10 06:31:13;;;;;;;;;6.00;3.75;;;;;17.91;93.72;101163.88;5122155;27;45309;-55
2022/09/10 06:33:38;;;;;;;;;3.00;2.00;;;;;17.97;92.99;101160.06;5122559;27;45290;-53
2022/09/10 06:36:04;;;;;;;;;2.75;2.75;;;;;17.98;92.98;101165.25;5122691;27;45360;-55
2022/09/10 06:38:32;;;;;;;;;3.00;3.00;;;;;17.98;92.79;101169.66;5122394;27;46311;-54
2022/09/10 06:40:59;;;;;;;;;3.00;2.00;;;;;17.97;92.97;101170.59;5122671;27;45520;-54
2022/09/10 06:43:26;;;;;;;;;3.75;2.00;;;;;17.95;93.04;101170.69;5121399;27;45306;-54
2022/09/10 06:45:54;;;;;;;;;4.00;3.75;;;;;17.96;93.16;101172.38;5122596;27;45420;-60
2022/09/10 06:48:21;;;;;;;;;2.75;2.75;;;;;17.98;92.53;101172.28;5121883;27;45526;-55
2022/09/10 06:50:54;;;;;;;;;3.75;1.00;;;;;17.96;92.83;101174.16;5122445;27;45577;-55
2022/09/10 06:53:21;;;;;;;;;4.75;3.00;;;;;17.94;92.54;101182.97;5122343;27;45397;-55
2022/09/10 06:55:50;;;;;;;;;6.50;4.00;;;;;17.99;93.03;101174.00;5122442;27;45453;-56
2022/09/10 06:58:18;;;;;;;;;2.75;2.75;;;;;18.02;92.53;101179.97;5121685;27;46364;-56
2022/09/10 07:00:46;;;;;;;;;4.00;2.00;;;;;18.05;92.90;101177.19;5120360;27;46317;-56
2022/09/10 07:03:16;;;;;;;;;5.00;3.00;;;;;18.09;92.71;101183.13;5121010;27;45370;-57
2022/09/10 07:05:42;;;;;;;;;2.00;2.00;;;;;18.13;92.64;101176.78;5108445;27;45481;-57
2022/09/10 07:08:11;;;;;;;;;2.75;2.75;;;;;18.16;92.29;101177.47;5121235;27;46980;-57
2022/09/10 07:10:37;;;;;;;;;5.00;2.75;;;;;18.23;92.04;101188.53;5120428;27;45491;-56
2022/09/10 07:13:03;;;;;;;;;5.50;2.00;;;;;18.22;91.99;101178.94;5121451;27;45429;-62
2022/09/10 07:15:29;;;;;;;;;3.75;2.00;;;;;18.30;91.55;101195.16;5121134;27;45441;-56
2022/09/10 07:17:54;;;;;;;;;3.00;3.00;;;;;18.36;91.49;101192.19;5120585;27;46006;-56
2022/09/10 07:20:22;;;;;;;;;4.75;3.00;;;;;18.40;91.31;101192.88;5110137;27;45207;-56
2022/09/10 07:22:50;;;;;;;;;2.00;2.00;;;;;18.42;91.46;101202.44;5119723;27;45273;-56
2022/09/10 07:25:15;;;;;;;;;4.00;4.00;;;;;18.46;91.16;101200.47;5121723;27;45480;-56
2022/09/10 07:27:41;;;;;;;;;7.25;3.75;;;;;18.46;90.66;101196.06;5120055;27;45447;-56
2022/09/10 07:30:06;;;;;;;;;2.25;2.25;;;;;18.47;90.78;101208.28;5120439;27;45301;-57
2022/09/10 07:32:32;;;;;;;;;4.50;2.00;;;;;18.50;90.30;101208.13;5121191;27;45422;-58
2022/09/10 07:34:58;;;;;;;;;2.50;2.50;;;;;18.52;90.72;101213.31;5121616;27;45417;-57
2022/09/10 07:37:24;;;;;;;;;4.25;3.00;;;;;18.55;90.06;101221.03;5120391;27;46128;-57
2022/09/10 07:39:50;;;;;;;;;2.25;2.00;;;;;18.58;90.28;101212.13;5120891;27;45220;-57
2022/09/10 07:42:15;;;;;;;;;2.25;2.25;;;;;18.55;89.87;101210.50;5120809;27;45196;-57
2022/09/10 07:44:40;;;;;;;;;3.25;2.75;;;;;18.58;90.12;101217.38;5123364;27;45133;-56
2022/09/10 07:47:06;;;;;;;;;3.00;3.00;;;;;18.64;90.09;101210.06;5130336;27;46004;-57
2022/09/10 07:49:31;;;;;;;;;7.25;3.00;;;;;18.74;90.27;101218.31;5124812;27;45186;-57
2022/09/10 07:51:56;;;;;;;;;2.25;2.00;;;;;18.81;89.89;101220.50;5120621;27;45462;-57
2022/09/10 07:54:23;;;;;;;;;2.75;2.25;;;;;18.90;89.17;101232.34;5120636;27;46328;-57
2022/09/10 07:56:49;;;;;;;;;3.75;3.75;;;;;19.00;88.67;101232.69;5119954;27;45997;-57
2022/09/10 07:59:14;;;;;;;;;3.00;3.00;;;;;19.09;88.54;101237.47;5117717;27;45466;-57
2022/09/10 08:01:39;;;;;;;;;3.50;2.00;;;;;19.20;88.67;101235.06;5120255;27;45726;-57
2022/09/10 08:04:06;;;;;;;;;5.25;2.75;;;;;19.35;87.51;101233.38;5120925;27;45284;-57
2022/09/10 08:06:31;;;;;;;;;2.25;2.00;;;;;19.39;86.88;101230.47;5120744;27;47161;-57
2022/09/10 08:08:56;;;;;;;;;2.50;2.50;;;;;19.48;86.52;101244.09;5107894;27;45261;-57
2022/09/10 08:11:22;;;;;;;;;4.25;2.00;;;;;19.54;86.40;101241.13;5120324;27;45312;-56
2022/09/10 08:13:49;;;;;;;;;2.00;2.00;;;;;19.61;86.43;101245.09;5120861;27;45280;-57
2022/09/10 08:16:20;;;;;;;;;8.50;3.00;;;;;19.74;85.91;101240.84;5119792;27;45477;-60
2022/09/10 08:18:47;;;;;;;;;2.00;1.00;;;;;19.83;84.51;101240.31;5120452;27;45303;-57
2022/09/10 08:21:13;;;;;;;;;2.00;2.00;;;;;19.86;84.80;101249.84;5109216;27;45276;-56
2022/09/10 08:23:39;;;;;;;;;2.00;2.00;;;;;19.79;84.62;101248.47;5101841;27;45227;-56
2022/09/10 08:26:06;;;;;;;;;4.00;3.00;;;;;19.83;84.32;101252.66;5117906;27;45281;-56
2022/09/10 08:28:32;;;;;;;;;6.00;3.00;;;;;19.85;83.87;101249.00;5120771;27;45492;-57
2022/09/10 08:31:03;;;;;;;;;3.00;3.00;;;;;19.90;82.85;101246.09;5114238;27;45419;-56
2022/09/10 08:33:34;;;;;;;;;2.00;2.00;;;;;19.97;83.41;101250.91;5114439;27;45211;-56
2022/09/10 08:36:00;;;;;;;;;5.00;3.00;;;;;20.10;83.78;101252.84;5111446;27;46169;-56
2022/09/10 08:38:30;;;;;;;;;4.50;3.00;;;;;20.20;83.45;101248.69;5124101;27;45446;-56
2022/09/10 08:40:56;;;;;;;;;4.00;4.00;;;;;20.25;82.75;101247.50;5124685;27;45234;-56
2022/09/10 08:43:42;;;;;;;;;5.00;3.00;;;;;20.30;83.06;101250.72;5105359;27;45452;-56
2022/09/10 08:46:24;;;;;;;;;3.75;1.50;;;;;20.44;82.61;101257.00;5124100;27;46085;-59
2022/09/10 08:48:56;;;;;;;;;3.75;2.00;;;;;20.52;81.74;101262.66;5111019;27;45521;-57
2022/09/10 08:51:26;;;;;;;;;4.25;2.25;;;;;20.47;81.21;101251.53;5123147;27;45302;-58
2022/09/10 08:53:58;;;;;;;;;4.50;4.50;;;;;20.44;81.33;101263.13;5112587;27;45391;-58
2022/09/10 08:56:26;;;;;;;;;4.00;2.50;;;;;20.39;81.81;101261.63;5123867;27;46433;-58
2022/09/10 08:59:02;;;;;;;;;4.25;2.75;;;;;20.41;82.16;101273.00;5123995;27;45600;-58
2022/09/10 09:01:44;;;;;;;;;4.25;2.25;;;;;20.33;81.76;101279.56;5123932;27;45275;-57
2022/09/10 09:04:19;;;;;;;;;3.25;3.25;;;;;20.21;82.37;101285.53;5124118;27;45224;-57
2022/09/10 09:06:51;;;;;;;;;4.50;3.00;;;;;20.08;82.62;101289.88;5111513;27;46359;-57
2022/09/10 09:09:16;;;;;;;;;6.00;3.00;;;;;19.98;82.97;101288.69;5123824;27;45690;-57
2022/09/10 09:11:49;;;;;;;;;6.75;3.00;;;;;19.86;83.78;101284.97;5124313;27;45314;-55
2022/09/10 09:14:34;;;;;;;;;4.25;3.75;;;;;19.78;83.95;101284.56;5123484;27;45301;-56
2022/09/10 09:17:11;;;;;;;;;2.25;2.00;;;;;19.73;85.34;101290.09;5122629;27;46324;-56
2022/09/10 09:19:44;;;;;;;;;3.00;3.00;;;;;19.75;85.03;101290.00;5105614;27;45513;-56
2022/09/10 09:22:23;;;;;;;;;2.00;2.00;;;;;19.82;85.81;101287.84;5118997;27;45474;-56
2022/09/10 09:25:04;;;;;;;;;5.50;2.25;;;;;19.91;85.35;101295.25;5112183;27;45374;-56
2022/09/10 09:27:34;;;;;;;;;7.25;6.00;;;;;19.89;85.50;101290.06;5121897;27;45495;-56
2022/09/10 09:30:04;;;;;;;;;2.50;1.00;;;;;19.90;85.71;101297.06;5105065;27;45504;-56
2022/09/10 09:32:33;;;;;;;;;3.50;3.00;;;;;19.93;86.14;101294.22;5123124;27;45440;-57
2022/09/10 09:35:18;;;;;;;;;2.75;2.50;;;;;20.01;86.33;101293.78;5123709;27;45392;-56
2022/09/10 09:37:49;;;;;;;;;3.50;3.50;;;;;20.05;86.13;101309.38;5123302;27;46066;-56
2022/09/10 09:40:32;;;;;;;;;4.00;3.00;;;;;19.97;86.06;101310.72;5123238;27;45275;-57
2022/09/10 09:43:07;;;;;;;;;2.00;2.00;;;;;19.85;86.31;101311.44;5123535;27;45330;-56
2022/09/10 09:45:37;;;;;;;;;3.00;3.00;;;;;19.82;86.44;101306.31;5122473;27;45321;-57
2022/09/10 09:48:11;;;;;;;;;3.75;3.00;;;;;19.84;86.73;101310.59;5136646;27;46302;-57
2022/09/10 09:50:40;;;;;;;;;4.00;3.00;;;;;19.91;86.68;101316.38;5110453;27;45547;-57
2022/09/10 09:53:08;;;;;;;;;3.25;2.75;;;;;19.93;86.58;101317.13;5123001;27;45242;-57
2022/09/10 09:55:39;;;;;;;;;3.00;3.00;;;;;19.88;86.07;101319.19;5123123;27;45544;-58
2022/09/10 09:58:25;;;;;;;;;2.50;2.50;;;;;19.79;86.58;101319.69;5122506;27;46426;-57
2022/09/10 10:01:02;;;;;;;;;3.00;3.00;;;;;19.78;86.86;101325.91;5123031;27;46588;-57
2022/09/10 10:03:31;;;;;;;;;9.00;3.25;;;;;19.73;86.84;101326.16;5109818;27;45361;-55
2022/09/10 10:06:00;;;;;;;;;3.00;3.00;;;;;19.72;87.83;101329.75;5123168;27;45402;-58
2022/09/10 10:08:33;;;;;;;;;3.50;2.00;;;;;19.67;88.04;101330.00;5123095;27;45950;-58
2022/09/10 10:10:59;;;;;;;;;5.00;3.25;;;;;19.67;88.32;101330.00;5122795;27;45181;-58
2022/09/10 10:13:36;;;;;;;;;3.00;3.00;;;;;19.70;88.13;101334.25;5123068;27;45238;-58
2022/09/10 10:16:15;;;;;;;;;5.00;3.50;;;;;19.73;87.79;101329.66;5113081;27;45230;-57
2022/09/10 10:18:41;;;;;;;;;6.00;5.00;;;;;19.81;88.10;101331.00;5122058;27;46054;-58
2022/09/10 10:21:16;;;;;;;;;14.00;9.50;;;;;19.88;87.90;101329.75;5110495;27;45244;-58
2022/09/10 10:23:42;;;;;;;;;5.50;5.50;;;;;19.92;87.53;101326.81;5122648;27;45489;-58
2022/09/10 10:26:19;;;;;;;;;5.50;4.75;;;;;19.95;87.56;101328.44;5121262;27;45896;-59
2022/09/10 10:28:46;;;;;;;;;3.75;3.00;;;;;19.96;87.13;101330.13;5122437;27;45452;-58
2022/09/10 10:31:12;;;;;;;;;6.50;5.00;;;;;19.98;86.89;101333.53;5122336;27;45587;-58
2022/09/10 10:34:01;;;;;;;;;3.00;3.00;;;;;20.00;86.84;101331.66;5122484;27;45509;-59
2022/09/10 10:36:32;;;;;;;;;4.75;4.00;;;;;19.98;87.76;101328.25;5122759;27;45281;-58
2022/09/10 10:39:25;;;;;;;;;7.00;5.50;;;;;20.00;88.56;101326.38;5122299;27;45433;-58
2022/09/10 10:42:03;;;;;;;;;5.00;5.00;;;;;20.16;88.96;101337.75;5122416;27;45559;-58
2022/09/10 10:44:34;;;;;;;;;5.00;4.00;;;;;20.17;87.74;101328.06;5122497;27;45356;-58
2022/09/10 10:47:27;;;;;;;;;6.50;3.75;;;;;20.11;88.53;101329.25;5122218;27;45291;-57
2022/09/10 10:50:14;;;;;;;;;4.25;4.00;;;;;20.20;88.73;101327.88;5122220;27;45969;-57
2022/09/10 10:53:03;;;;;;;;;3.50;3.50;;;;;20.40;88.33;101329.34;5121858;27;45470;-57
2022/09/10 10:55:37;;;;;;;;;5.00;5.00;;;;;20.43;88.54;101321.28;5110715;27;45553;-59
2022/09/10 10:58:28;;;;;;;;;3.75;3.75;;;;;20.41;87.53;101326.63;5120419;27;45567;-59
2022/09/10 11:01:05;;;;;;;;;7.25;4.50;;;;;20.42;87.87;101322.19;5121979;27;45251;-59
2022/09/10 11:03:41;;;;;;;;;4.00;4.00;;;;;20.57;88.80;101322.16;5116833;27;45436;-57
2022/09/10 11:06:14;;;;;;;;;5.25;5.25;;;;;20.80;87.67;101315.47;5103091;27;45786;-57
2022/09/10 11:08:54;;;;;;;;;4.25;3.00;;;;;20.88;86.67;101321.16;5129541;27;45235;-57
2022/09/10 11:11:43;;;;;;;;;3.75;3.75;;;;;20.92;85.41;101316.53;5129998;27;47190;-58
2022/09/10 11:14:27;;;;;;;;;5.00;5.00;;;;;20.85;85.79;101312.56;5129203;27;45290;-56
2022/09/10 11:16:58;;;;;;;;;6.75;5.00;;;;;20.86;85.73;101312.47;5121430;27;45948;-56
2022/09/10 11:20:07;;;;;;;;;6.50;4.00;;;;;20.98;86.24;101312.66;5110380;27;45354;-56
2022/09/10 11:22:38;;;;;;;;;3.75;3.75;;;;;21.07;85.49;101312.09;5105559;27;46526;-57
2022/09/10 11:25:26;;;;;;;;;2.75;2.75;;;;;21.11;84.23;101308.31;5118381;27;45358;-57
2022/09/10 11:28:21;;;;;;;;;1.75;1.25;;;;;21.11;84.77;101303.03;5117990;27;45405;-56
2022/09/10 11:30:56;;;;;;;;;5.00;3.75;;;;;21.12;84.30;101302.94;5115921;27;45539;-56
2022/09/10 11:33:34;;;;;;;;;4.25;4.25;;;;;21.08;84.98;101305.88;5121316;27;46192;-56
2022/09/10 11:36:29;;;;;;;;;6.50;4.00;;;;;21.13;84.26;101303.78;5128571;27;45517;-57